Main page
METAR-TAF:

METAR-TAF

Airports :

Mehrabad International Airport

Tehran, Iran

latitude: 35-41N, longitude: 051-21E, elevation: 1204 m

Current weather observation

The report was made 43 minutes ago, at 00:00 UTC
Wind 4 kt from the West/Northwest
Temperature 8°C
Humidity 46%
Pressure 1013 hPa
Visibility 10 km or more
no clouds below 1500 m and no cumulonimbus

METAR: OIII 130000Z 29004KT CAVOK 08/M03 Q1013 A2992 NOSIG

Time: 05:13 (00:43 UTC)

Forecast

The report was made 1 hour and 43 minutes ago, at 23:00 UTC
Forecast valid from 13 at 00 UTC to 14 at 06 UTC
Wind 6 kt from the West/Northwest
Visibility: 7000 m
Few clouds at a height of 3500 ft
Scattered clouds at a height of 10000 ft
Temporary
from 13 at 06 UTC to 13 at 14 UTC
Few clouds at a height of 3500 ft, Cumulonimbus.
Scattered clouds at a height of 4000 ft
Broken clouds at a height of 10000 ft

TAF: OIII 122300Z 1300/1406 30006KT 7000 FEW035 SCT100 TEMPO 1306/1314 FEW035CB SCT040 BKN100

Weather observations and forecasts of more than 4000 airports (METAR and TAF reports).

The available stations are represented by yellow and red dots on the map.

Hover mouse over dot to see the name of the station.

Then click to see weather observations and forecasts.

To change the map : click on the green buttons with a black cross to zoom in, on the green button with a dash to zoom out, or on the green arrows for adjacent maps.


METAR-TAF: